Time;durP1;ratioP1;P1;durP2;ratioP2;P2;SDS_P1;SDS_P2;PMS_P1;PMS_P2;Temp;Humidity;BMP_temperature;BMP_pressure;BME280_temperature;BME280_humidity;BME280_pressure;Samples;Min_cycle;Max_cycle;Signal;HPM_P1;HPM_P2
2021/05/26 00:00:00;;;;;;;20.13;4.47;;;;;;;;;;5060665;28;20208;-83
2021/05/26 00:02:26;;;;;;;10.05;4.43;;;;;;;;;;5058381;28;20224;-81
2021/05/26 00:04:52;;;;;;;13.85;4.38;;;;;;;;;;5061579;28;20181;-80
2021/05/26 00:07:19;;;;;;;7.35;3.50;;;;;;;;;;5057511;28;20185;-80
2021/05/26 00:09:45;;;;;;;14.40;3.80;;;;;;;;;;5055830;28;20192;-81
2021/05/26 00:12:12;;;;;;;9.20;3.95;;;;;;;;;;5059854;28;20201;-81
2021/05/26 00:14:38;;;;;;;12.68;4.25;;;;;;;;;;5073434;28;20178;-80
2021/05/26 00:17:04;;;;;;;7.25;3.65;;;;;;;;;;5063822;28;20180;-81
2021/05/26 00:19:30;;;;;;;16.95;4.70;;;;;;;;;;5065224;28;20197;-83
2021/05/26 00:21:56;;;;;;;14.35;4.28;;;;;;;;;;5061887;28;20192;-81
2021/05/26 00:24:22;;;;;;;8.77;3.13;;;;;;;;;;5076718;28;20202;-81
2021/05/26 00:26:48;;;;;;;10.30;3.83;;;;;;;;;;5080081;28;20196;-82
2021/05/26 00:29:14;;;;;;;8.70;4.70;;;;;;;;;;5064100;28;20485;-80
2021/05/26 00:31:40;;;;;;;10.27;4.10;;;;;;;;;;5067601;28;20272;-80
2021/05/26 00:34:06;;;;;;;21.15;5.47;;;;;;;;;;5060344;28;20192;-81
2021/05/26 00:36:32;;;;;;;14.68;4.35;;;;;;;;;;5060498;28;20243;-81
2021/05/26 00:38:58;;;;;;;10.82;3.50;;;;;;;;;;5061994;28;20521;-80
2021/05/26 00:41:31;;;;;;;12.52;4.00;;;;;;;;;;5076023;28;20221;-79
2021/05/26 00:43:57;;;;;;;8.60;3.60;;;;;;;;;;5066015;28;20173;-79
2021/05/26 00:46:23;;;;;;;10.27;3.50;;;;;;;;;;5065655;28;20180;-79
2021/05/26 00:48:49;;;;;;;5.78;2.80;;;;;;;;;;5065366;28;20177;-80
2021/05/26 00:51:15;;;;;;;7.32;2.90;;;;;;;;;;5065418;28;20188;-79
2021/05/26 00:53:41;;;;;;;5.03;2.67;;;;;;;;;;5065162;28;20200;-81
2021/05/26 00:56:08;;;;;;;9.50;3.85;;;;;;;;;;5065718;28;20201;-79
2021/05/26 00:58:34;;;;;;;10.93;2.63;;;;;;;;;;5060944;28;20173;-80
2021/05/26 01:01:00;;;;;;;8.68;3.15;;;;;;;;;;5074603;28;20250;-79
2021/05/26 01:03:27;;;;;;;9.95;2.90;;;;;;;;;;5060682;28;20248;-79
2021/05/26 01:05:53;;;;;;;6.97;3.45;;;;;;;;;;5074358;28;20227;-80
2021/05/26 01:08:19;;;;;;;7.57;2.75;;;;;;;;;;5064805;28;20239;-81
2021/05/26 01:10:45;;;;;;;8.00;2.60;;;;;;;;;;5061357;28;20402;-79
2021/05/26 01:13:12;;;;;;;7.97;2.85;;;;;;;;;;5060088;28;20173;-79
2021/05/26 01:15:38;;;;;;;8.70;2.92;;;;;;;;;;5059133;28;20186;-78
2021/05/26 01:18:21;;;;;;;10.32;2.80;;;;;;;;;;5063301;28;20181;-80
2021/05/26 01:20:47;;;;;;;19.58;2.70;;;;;;;;;;5072796;28;20213;-80
2021/05/26 01:23:17;;;;;;;4.80;2.40;;;;;;;;;;5064557;28;20181;-80
2021/05/26 01:25:44;;;;;;;5.82;2.65;;;;;;;;;;5064532;28;20248;-81
2021/05/26 01:28:10;;;;;;;5.80;3.15;;;;;;;;;;5058614;28;20184;-83
2021/05/26 01:30:36;;;;;;;6.45;3.30;;;;;;;;;;5074410;28;20189;-81
2021/05/26 01:33:02;;;;;;;9.05;3.28;;;;;;;;;;5068938;28;20185;-79
2021/05/26 01:35:28;;;;;;;8.48;3.63;;;;;;;;;;5061018;28;20181;-80
2021/05/26 01:37:54;;;;;;;4.45;2.45;;;;;;;;;;5059434;28;20219;-79
2021/05/26 01:40:20;;;;;;;8.38;2.70;;;;;;;;;;5064352;28;20735;-79
2021/05/26 01:42:46;;;;;;;8.10;3.30;;;;;;;;;;5060120;28;20178;-79
2021/05/26 01:45:13;;;;;;;5.38;3.10;;;;;;;;;;5066222;28;20219;-80
2021/05/26 01:47:39;;;;;;;7.00;4.15;;;;;;;;;;5062212;28;20196;-79
2021/05/26 01:50:06;;;;;;;13.15;3.33;;;;;;;;;;5058811;28;20177;-79
2021/05/26 01:52:32;;;;;;;8.10;3.00;;;;;;;;;;5064082;28;20184;-79
2021/05/26 01:54:58;;;;;;;7.22;3.30;;;;;;;;;;5059883;28;20189;-82
2021/05/26 01:57:24;;;;;;;9.18;3.40;;;;;;;;;;5059477;28;20192;-81
2021/05/26 01:59:50;;;;;;;8.43;3.42;;;;;;;;;;5062982;28;20240;-81
2021/05/26 02:02:16;;;;;;;9.57;3.38;;;;;;;;;;5074209;28;20590;-82
2021/05/26 02:04:42;;;;;;;8.70;3.72;;;;;;;;;;5059621;28;20165;-82
2021/05/26 02:07:13;;;;;;;6.97;3.40;;;;;;;;;;5059567;28;20216;-80
2021/05/26 02:09:39;;;;;;;5.03;3.00;;;;;;;;;;5059426;28;20184;-80
2021/05/26 02:12:22;;;;;;;7.05;3.03;;;;;;;;;;5059386;28;20188;-79
2021/05/26 02:14:55;;;;;;;9.50;3.47;;;;;;;;;;5062760;28;20254;-81
2021/05/26 02:17:21;;;;;;;7.05;3.10;;;;;;;;;;5058608;28;20219;-82
2021/05/26 02:19:48;;;;;;;12.18;3.53;;;;;;;;;;5074750;28;20208;-82
2021/05/26 02:22:14;;;;;;;9.73;3.40;;;;;;;;;;5058383;28;20177;-81
2021/05/26 02:24:43;;;;;;;6.93;2.88;;;;;;;;;;5064674;28;20185;-81
2021/05/26 02:27:09;;;;;;;12.95;3.83;;;;;;;;;;5076229;28;20658;-79
2021/05/26 02:29:35;;;;;;;5.82;2.97;;;;;;;;;;5072645;28;20661;-81
2021/05/26 02:32:01;;;;;;;5.03;3.15;;;;;;;;;;5062669;28;20181;-84
2021/05/26 02:34:27;;;;;;;5.72;2.97;;;;;;;;;;5058971;28;20184;-81
2021/05/26 02:36:53;;;;;;;7.88;3.17;;;;;;;;;;5073385;28;20587;-81
2021/05/26 02:39:19;;;;;;;9.27;2.83;;;;;;;;;;5058849;28;20206;-83
2021/05/26 02:41:45;;;;;;;6.85;2.63;;;;;;;;;;5061508;28;20181;-83
2021/05/26 02:44:12;;;;;;;10.85;3.60;;;;;;;;;;5058065;28;20577;-81
2021/05/26 02:46:38;;;;;;;11.63;3.38;;;;;;;;;;5058613;28;20181;-82
2021/05/26 02:49:05;;;;;;;8.27;3.17;;;;;;;;;;5063486;28;20189;-83
2021/05/26 02:51:32;;;;;;;4.43;2.67;;;;;;;;;;5057782;28;20197;-82
2021/05/26 02:53:58;;;;;;;7.38;2.78;;;;;;;;;;5063091;28;20215;-82
2021/05/26 02:56:24;;;;;;;6.20;2.85;;;;;;;;;;5062820;28;20197;-82
2021/05/26 02:58:50;;;;;;;7.82;3.92;;;;;;;;;;5074048;28;20200;-80
2021/05/26 03:01:16;;;;;;;4.43;2.60;;;;;;;;;;5057564;28;20176;-81
2021/05/26 03:03:42;;;;;;;6.70;2.85;;;;;;;;;;5058066;28;20178;-83
2021/05/26 03:06:08;;;;;;;7.05;3.03;;;;;;;;;;5060772;28;20189;-81
2021/05/26 03:08:34;;;;;;;6.80;3.25;;;;;;;;;;5060022;28;20275;-79
2021/05/26 03:11:00;;;;;;;8.10;3.35;;;;;;;;;;5072719;28;20225;-79
2021/05/26 03:13:26;;;;;;;8.88;2.78;;;;;;;;;;5058259;28;20993;-81
2021/05/26 03:15:53;;;;;;;10.48;3.20;;;;;;;;;;5073142;28;20275;-81
2021/05/26 03:18:20;;;;;;;3.15;2.78;;;;;;;;;;5070018;28;20622;-81
2021/05/26 03:20:46;;;;;;;4.72;2.35;;;;;;;;;;5078168;28;20205;-81
2021/05/26 03:23:13;;;;;;;4.50;2.65;;;;;;;;;;5057615;28;20196;-81
2021/05/26 03:25:39;;;;;;;5.70;2.35;;;;;;;;;;5056930;28;20191;-81
2021/05/26 03:28:05;;;;;;;13.95;3.30;;;;;;;;;;5062695;28;20181;-82
2021/05/26 03:30:31;;;;;;;6.82;1.85;;;;;;;;;;5057505;28;20186;-82
2021/05/26 03:32:58;;;;;;;6.47;2.83;;;;;;;;;;5062769;28;20195;-82
2021/05/26 03:35:24;;;;;;;11.48;2.88;;;;;;;;;;5062814;28;20204;-81
2021/05/26 03:37:50;;;;;;;6.45;1.90;;;;;;;;;;5073279;28;20180;-83
2021/05/26 03:40:17;;;;;;;5.90;2.88;;;;;;;;;;5057035;28;20201;-82
2021/05/26 03:42:44;;;;;;;7.75;3.03;;;;;;;;;;5056964;28;20208;-82
2021/05/26 03:45:11;;;;;;;6.15;2.30;;;;;;;;;;5060412;28;20259;-84
2021/05/26 03:47:38;;;;;;;6.22;1.60;;;;;;;;;;5059882;28;20634;-80
2021/05/26 03:50:04;;;;;;;7.28;3.10;;;;;;;;;;5058683;28;20177;-82
2021/05/26 03:52:30;;;;;;;4.93;2.10;;;;;;;;;;5062038;28;20173;-81
2021/05/26 03:54:56;;;;;;;3.13;1.85;;;;;;;;;;5066003;28;20275;-82
2021/05/26 03:57:22;;;;;;;5.22;1.58;;;;;;;;;;5066736;28;20707;-82
2021/05/26 03:59:48;;;;;;;4.95;1.90;;;;;;;;;;5081561;28;20443;-82
2021/05/26 04:02:14;;;;;;;2.00;1.80;;;;;;;;;;5076688;28;20184;-80
2021/05/26 04:04:41;;;;;;;5.22;1.60;;;;;;;;;;5066059;28;20169;-81
2021/05/26 04:07:07;;;;;;;4.25;1.52;;;;;;;;;;5066128;28;20189;-82
2021/05/26 04:09:34;;;;;;;1.90;1.60;;;;;;;;;;5060151;28;20194;-83
2021/05/26 04:12:00;;;;;;;3.72;1.55;;;;;;;;;;5065997;28;20200;-81
2021/05/26 04:14:26;;;;;;;3.72;2.00;;;;;;;;;;5081670;28;20178;-82
2021/05/26 04:16:52;;;;;;;2.05;1.50;;;;;;;;;;5060852;28;20296;-83
2021/05/26 04:19:18;;;;;;;5.57;2.05;;;;;;;;;;5061346;28;20207;-80
2021/05/26 04:21:44;;;;;;;3.20;1.60;;;;;;;;;;5060386;28;20186;-80
2021/05/26 04:24:10;;;;;;;4.47;1.52;;;;;;;;;;5065692;28;20463;-82
2021/05/26 04:26:36;;;;;;;2.78;1.10;;;;;;;;;;5079864;28;20193;-82
2021/05/26 04:29:02;;;;;;;9.90;1.65;;;;;;;;;;5076507;28;20203;-83
2021/05/26 04:31:28;;;;;;;2.60;1.40;;;;;;;;;;5061084;28;20169;-81
2021/05/26 04:33:54;;;;;;;3.87;1.40;;;;;;;;;;5064516;28;20200;-80
2021/05/26 04:36:20;;;;;;;2.20;1.27;;;;;;;;;;5061792;28;20997;-80
2021/05/26 04:38:46;;;;;;;2.27;1.13;;;;;;;;;;5064147;28;20455;-80
2021/05/26 04:41:12;;;;;;;3.23;1.13;;;;;;;;;;5060031;28;20439;-80
2021/05/26 04:43:38;;;;;;;1.48;1.02;;;;;;;;;;5061221;28;20416;-83
2021/05/26 04:46:04;;;;;;;3.93;1.50;;;;;;;;;;5059890;28;20231;-80
2021/05/26 04:48:31;;;;;;;2.00;1.40;;;;;;;;;;5061340;28;20503;-81
2021/05/26 04:50:57;;;;;;;2.33;1.20;;;;;;;;;;5054616;28;20315;-79
2021/05/26 04:53:23;;;;;;;3.08;1.00;;;;;;;;;;5060113;28;20660;-82
2021/05/26 04:55:49;;;;;;;3.92;0.90;;;;;;;;;;5064653;28;20180;-80
2021/05/26 04:58:15;;;;;;;8.07;1.20;;;;;;;;;;5061546;28;20184;-84
2021/05/26 05:00:41;;;;;;;2.13;1.15;;;;;;;;;;5059930;28;20279;-80
2021/05/26 05:03:07;;;;;;;3.08;0.90;;;;;;;;;;5062359;28;20188;-80
2021/05/26 05:05:34;;;;;;;0.80;0.70;;;;;;;;;;5074454;28;20178;-81
2021/05/26 05:08:00;;;;;;;1.10;0.70;;;;;;;;;;5065170;28;20529;-76
2021/05/26 05:10:26;;;;;;;3.30;1.00;;;;;;;;;;5060115;28;20221;-83
2021/05/26 05:12:52;;;;;;;4.18;1.27;;;;;;;;;;5060568;28;20212;-81
2021/05/26 05:15:18;;;;;;;0.82;0.65;;;;;;;;;;5065046;28;20185;-79
2021/05/26 05:17:48;;;;;;;2.47;0.93;;;;;;;;;;5065046;28;20208;-80
2021/05/26 05:20:20;;;;;;;3.20;0.77;;;;;;;;;;5059071;28;20208;-79
2021/05/26 05:22:47;;;;;;;1.88;0.70;;;;;;;;;;5059554;28;20200;-84
2021/05/26 05:25:13;;;;;;;5.43;2.00;;;;;;;;;;5064500;28;20185;-77
2021/05/26 05:27:39;;;;;;;1.58;0.65;;;;;;;;;;5060432;28;20275;-78
2021/05/26 05:30:06;;;;;;;1.73;0.80;;;;;;;;;;5064455;28;20184;-77
2021/05/26 05:32:32;;;;;;;0.70;0.70;;;;;;;;;;5079620;28;20184;-77
2021/05/26 05:34:58;;;;;;;1.75;0.77;;;;;;;;;;5064537;28;20256;-76
2021/05/26 05:37:24;;;;;;;1.10;0.80;;;;;;;;;;5060145;28;20192;-77
2021/05/26 05:39:51;;;;;;;0.80;0.80;;;;;;;;;;5060308;28;20216;-79
2021/05/26 05:42:17;;;;;;;1.05;0.95;;;;;;;;;;5060566;28;20178;-79
2021/05/26 05:44:43;;;;;;;1.75;0.95;;;;;;;;;;5062561;28;20177;-78
2021/05/26 05:47:09;;;;;;;3.35;0.75;;;;;;;;;;5074142;28;20631;-77
2021/05/26 05:49:35;;;;;;;1.00;0.83;;;;;;;;;;5059624;28;20209;-80
2021/05/26 05:52:01;;;;;;;1.50;0.90;;;;;;;;;;5058651;28;20450;-78
2021/05/26 05:54:27;;;;;;;0.82;0.77;;;;;;;;;;5066148;28;20227;-78
2021/05/26 05:56:53;;;;;;;2.35;0.95;;;;;;;;;;5064082;28;20212;-78
2021/05/26 05:59:19;;;;;;;0.80;0.80;;;;;;;;;;5059083;28;20212;-77
2021/05/26 06:01:45;;;;;;;1.13;0.87;;;;;;;;;;5060001;28;20168;-78
2021/05/26 06:04:11;;;;;;;3.37;0.90;;;;;;;;;;5058127;28;20434;-76
2021/05/26 06:06:37;;;;;;;1.80;0.85;;;;;;;;;;5059572;28;20435;-77
2021/05/26 06:09:03;;;;;;;2.70;1.25;;;;;;;;;;5062225;28;20673;-77
2021/05/26 06:11:32;;;;;;;1.08;0.98;;;;;;;;;;5060178;28;20209;-76
2021/05/26 06:14:00;;;;;;;0.90;0.90;;;;;;;;;;5057857;28;20169;-77
2021/05/26 06:16:26;;;;;;;3.67;0.90;;;;;;;;;;5063089;28;20192;-77
2021/05/26 06:18:52;;;;;;;2.30;0.80;;;;;;;;;;5059285;28;20638;-76
2021/05/26 06:21:18;;;;;;;1.40;0.80;;;;;;;;;;5059805;28;20177;-80
2021/05/26 06:23:44;;;;;;;3.45;0.85;;;;;;;;;;5059071;28;20192;-76
2021/05/26 06:26:10;;;;;;;1.13;0.68;;;;;;;;;;5057414;28;20185;-77
2021/05/26 06:28:36;;;;;;;0.70;0.65;;;;;;;;;;5059138;28;20184;-76
2021/05/26 06:31:02;;;;;;;1.20;0.70;;;;;;;;;;5073439;28;20204;-79
2021/05/26 06:33:28;;;;;;;2.38;0.75;;;;;;;;;;5059487;28;20438;-77
2021/05/26 06:35:56;;;;;;;1.95;0.73;;;;;;;;;;5062903;28;20545;-75
2021/05/26 06:38:22;;;;;;;0.85;0.70;;;;;;;;;;5058641;28;20659;-76
2021/05/26 06:40:48;;;;;;;0.90;0.90;;;;;;;;;;5074157;28;20204;-76
2021/05/26 06:43:14;;;;;;;1.02;0.93;;;;;;;;;;5057967;28;20180;-75
2021/05/26 06:45:40;;;;;;;1.13;0.70;;;;;;;;;;5063611;28;20245;-75
2021/05/26 06:48:07;;;;;;;1.67;0.65;;;;;;;;;;5062625;28;20185;-76
2021/05/26 06:50:33;;;;;;;0.70;0.57;;;;;;;;;;5077248;28;20188;-75
2021/05/26 06:52:59;;;;;;;0.50;0.50;;;;;;;;;;5058025;28;20177;-81
2021/05/26 06:55:25;;;;;;;1.23;0.85;;;;;;;;;;5062442;28;20438;-74
2021/05/26 06:57:51;;;;;;;0.90;0.90;;;;;;;;;;5058827;28;20193;-75
2021/05/26 07:00:17;;;;;;;1.20;0.70;;;;;;;;;;5059019;28;20246;-75
2021/05/26 07:02:43;;;;;;;0.68;0.68;;;;;;;;;;5058257;28;20440;-73
2021/05/26 07:05:09;;;;;;;0.70;0.70;;;;;;;;;;5061838;28;20172;-76
2021/05/26 07:07:35;;;;;;;0.90;0.60;;;;;;;;;;5058459;28;20204;-74
2021/05/26 07:10:01;;;;;;;1.00;0.60;;;;;;;;;;5057216;28;20682;-75
2021/05/26 07:12:27;;;;;;;1.30;0.60;;;;;;;;;;5078201;28;20208;-75
2021/05/26 07:14:53;;;;;;;1.10;0.60;;;;;;;;;;5078421;28;20593;-75
2021/05/26 07:17:19;;;;;;;1.00;0.80;;;;;;;;;;5072151;28;20185;-76
2021/05/26 07:19:45;;;;;;;1.20;0.77;;;;;;;;;;5062426;28;20205;-74
2021/05/26 07:22:11;;;;;;;0.70;0.63;;;;;;;;;;5058504;28;20252;-74
2021/05/26 07:24:37;;;;;;;1.40;0.77;;;;;;;;;;5061056;28;20185;-74
2021/05/26 07:27:03;;;;;;;1.13;0.90;;;;;;;;;;5063624;28;20196;-75
2021/05/26 07:29:29;;;;;;;1.00;0.90;;;;;;;;;;5066359;28;20184;-77
2021/05/26 07:31:55;;;;;;;0.83;0.80;;;;;;;;;;5064220;28;20185;-75
2021/05/26 07:34:21;;;;;;;2.50;0.90;;;;;;;;;;5064174;28;20498;-75
2021/05/26 07:36:47;;;;;;;2.00;0.70;;;;;;;;;;5068841;28;20923;-75
2021/05/26 07:39:13;;;;;;;1.05;0.85;;;;;;;;;;5062667;28;20471;-75
2021/05/26 07:41:39;;;;;;;0.83;0.67;;;;;;;;;;5079692;28;20216;-75
2021/05/26 07:44:05;;;;;;;1.33;0.90;;;;;;;;;;5069198;28;20421;-75
2021/05/26 07:46:31;;;;;;;2.78;1.00;;;;;;;;;;5064341;28;20418;-76
2021/05/26 07:48:57;;;;;;;1.88;1.20;;;;;;;;;;5063600;28;20185;-76
2021/05/26 07:51:29;;;;;;;1.73;0.93;;;;;;;;;;5068012;28;21001;-75
2021/05/26 07:53:56;;;;;;;1.05;0.70;;;;;;;;;;5072691;28;20195;-75
2021/05/26 07:56:22;;;;;;;1.80;0.70;;;;;;;;;;5064782;28;20180;-75
2021/05/26 07:58:48;;;;;;;1.75;1.00;;;;;;;;;;5080220;28;20244;-75
2021/05/26 08:01:14;;;;;;;2.83;1.35;;;;;;;;;;5064726;28;20192;-75
2021/05/26 08:03:40;;;;;;;1.35;0.93;;;;;;;;;;5064594;28;20187;-76
2021/05/26 08:06:06;;;;;;;1.95;1.02;;;;;;;;;;5068852;28;20240;-75
2021/05/26 08:08:35;;;;;;;2.50;1.00;;;;;;;;;;5069075;28;20252;-76
2021/05/26 08:11:01;;;;;;;1.30;0.80;;;;;;;;;;5079108;28;20221;-74
2021/05/26 08:13:27;;;;;;;2.92;1.02;;;;;;;;;;5068630;28;20210;-75
2021/05/26 08:15:53;;;;;;;1.20;0.90;;;;;;;;;;5063091;28;20248;-75
2021/05/26 08:18:19;;;;;;;0.77;0.77;;;;;;;;;;5065449;28;20484;-75
2021/05/26 08:20:47;;;;;;;1.30;1.13;;;;;;;;;;5067561;28;20465;-75
2021/05/26 08:23:13;;;;;;;1.02;0.90;;;;;;;;;;5078754;28;20185;-75
2021/05/26 08:25:39;;;;;;;3.38;1.02;;;;;;;;;;5063713;28;20215;-75
2021/05/26 08:28:05;;;;;;;2.38;1.10;;;;;;;;;;5063499;28;20592;-76
2021/05/26 08:30:31;;;;;;;1.25;1.15;;;;;;;;;;5063184;28;20706;-75
2021/05/26 08:32:57;;;;;;;1.00;0.90;;;;;;;;;;5064328;28;20189;-79
2021/05/26 08:35:23;;;;;;;2.60;1.75;;;;;;;;;;5068777;28;20234;-75
2021/05/26 08:37:49;;;;;;;3.30;1.20;;;;;;;;;;5060957;28;20177;-76
2021/05/26 08:40:16;;;;;;;4.60;1.40;;;;;;;;;;5059895;28;20211;-77
2021/05/26 08:42:44;;;;;;;1.40;1.30;;;;;;;;;;5066064;28;20169;-76
2021/05/26 08:45:11;;;;;;;2.53;1.15;;;;;;;;;;5077883;28;20181;-76
2021/05/26 08:47:38;;;;;;;2.85;1.13;;;;;;;;;;5075204;28;20209;-76
2021/05/26 08:50:04;;;;;;;1.45;1.35;;;;;;;;;;5064451;28;20219;-76
2021/05/26 08:52:30;;;;;;;1.50;1.15;;;;;;;;;;5079833;28;20217;-76
2021/05/26 08:54:56;;;;;;;3.00;1.50;;;;;;;;;;5059174;28;20189;-75
2021/05/26 08:57:22;;;;;;;2.38;1.40;;;;;;;;;;5061667;28;20185;-77
2021/05/26 08:59:48;;;;;;;1.55;1.35;;;;;;;;;;5064011;28;20257;-74
2021/05/26 09:02:14;;;;;;;2.17;1.55;;;;;;;;;;5059944;28;20181;-77
2021/05/26 09:04:41;;;;;;;2.13;1.13;;;;;;;;;;5064683;28;20177;-76
2021/05/26 09:07:10;;;;;;;1.23;1.13;;;;;;;;;;5059778;28;20181;-75
2021/05/26 09:09:46;;;;;;;2.22;1.10;;;;;;;;;;5060973;28;20622;-75
2021/05/26 09:12:13;;;;;;;2.05;1.20;;;;;;;;;;5057952;28;20231;-75
2021/05/26 09:14:39;;;;;;;2.22;1.30;;;;;;;;;;5062638;28;20187;-76
2021/05/26 09:17:09;;;;;;;5.28;1.52;;;;;;;;;;5074629;28;20797;-76
2021/05/26 09:19:36;;;;;;;2.85;1.67;;;;;;;;;;5066290;28;20197;-75
2021/05/26 09:22:08;;;;;;;4.88;1.48;;;;;;;;;;5059456;28;20185;-75
2021/05/26 09:24:34;;;;;;;1.48;1.38;;;;;;;;;;5064779;28;20211;-77
2021/05/26 09:27:02;;;;;;;2.45;1.20;;;;;;;;;;5063569;28;20193;-76
2021/05/26 09:29:28;;;;;;;4.20;1.25;;;;;;;;;;5060773;28;20610;-76
2021/05/26 09:31:55;;;;;;;3.67;1.55;;;;;;;;;;5060119;28;20220;-75
2021/05/26 09:34:38;;;;;;;4.05;1.83;;;;;;;;;;5062790;28;20180;-75
2021/05/26 09:37:05;;;;;;;1.67;1.58;;;;;;;;;;5060191;28;20189;-75
2021/05/26 09:40:07;;;;;;;1.90;1.70;;;;;;;;;;5059085;28;20212;-76
2021/05/26 09:42:36;;;;;;;2.78;1.98;;;;;;;;;;5036382;28;20178;-76
2021/05/26 09:45:16;;;;;;;1.25;1.15;;;;;;;;;;5041516;28;20194;-75
2021/05/26 09:47:42;;;;;;;1.70;1.58;;;;;;;;;;5041545;28;20199;-77
2021/05/26 09:50:26;;;;;;;2.50;1.80;;;;;;;;;;5042379;28;20248;-75
2021/05/26 09:53:05;;;;;;;3.17;1.58;;;;;;;;;;5038728;28;20718;-76
2021/05/26 09:55:44;;;;;;;2.25;2.05;;;;;;;;;;5039797;28;20206;-76
2021/05/26 09:58:11;;;;;;;5.22;1.55;;;;;;;;;;5024860;28;20197;-75
2021/05/26 10:00:40;;;;;;;4.28;2.20;;;;;;;;;;5041565;28;20207;-74
2021/05/26 10:03:06;;;;;;;3.45;1.45;;;;;;;;;;5041658;28;20298;-76
2021/05/26 10:05:33;;;;;;;2.13;1.90;;;;;;;;;;5041689;28;20179;-75
2021/05/26 10:08:00;;;;;;;1.70;1.60;;;;;;;;;;5041716;28;20178;-76
2021/05/26 10:10:28;;;;;;;1.70;1.60;;;;;;;;;;5041688;28;20215;-75
2021/05/26 10:12:56;;;;;;;1.95;1.83;;;;;;;;;;5041211;28;20395;-77
2021/05/26 10:15:24;;;;;;;2.65;2.00;;;;;;;;;;5021930;28;20180;-75
2021/05/26 10:17:51;;;;;;;3.33;1.80;;;;;;;;;;5062574;28;20273;-75
2021/05/26 10:20:18;;;;;;;2.28;1.80;;;;;;;;;;5058379;28;20283;-74
2021/05/26 10:22:44;;;;;;;3.30;1.73;;;;;;;;;;5059364;28;20197;-73
2021/05/26 10:25:14;;;;;;;2.13;1.92;;;;;;;;;;5056633;28;20195;-75
2021/05/26 10:27:44;;;;;;;3.03;1.98;;;;;;;;;;5063514;28;20188;-75
2021/05/26 10:30:10;;;;;;;1.85;1.75;;;;;;;;;;5063562;28;20189;-75
2021/05/26 10:32:53;;;;;;;5.13;2.35;;;;;;;;;;5063716;28;20676;-75
2021/05/26 10:35:20;;;;;;;5.35;1.80;;;;;;;;;;5078617;28;20196;-75
2021/05/26 10:37:46;;;;;;;3.72;3.30;;;;;;;;;;5064508;28;20177;-75
2021/05/26 10:40:31;;;;;;;4.22;1.65;;;;;;;;;;5062591;28;20201;-77
2021/05/26 10:42:57;;;;;;;2.20;2.00;;;;;;;;;;5058185;28;20254;-76
2021/05/26 10:45:35;;;;;;;1.83;1.70;;;;;;;;;;5059065;28;20174;-75
2021/05/26 10:48:01;;;;;;;2.57;1.50;;;;;;;;;;5062321;28;20190;-75
2021/05/26 10:50:45;;;;;;;1.53;1.43;;;;;;;;;;5074194;28;20407;-76
2021/05/26 10:53:14;;;;;;;2.27;1.60;;;;;;;;;;5063430;28;20413;-77
2021/05/26 10:55:40;;;;;;;1.97;1.30;;;;;;;;;;5061887;28;20437;-77
2021/05/26 10:58:14;;;;;;;1.83;1.23;;;;;;;;;;5057576;28;20438;-76
2021/05/26 11:00:41;;;;;;;4.00;1.47;;;;;;;;;;5057165;28;20473;-76
2021/05/26 11:05:52;;;;;;;1.50;1.40;;;;;;;;;;5062606;28;20439;-76
2021/05/26 11:08:41;;;;;;;2.55;1.30;;;;;;;;;;5062758;28;20461;-75
2021/05/26 11:11:38;;;;;;;2.55;1.00;;;;;;;;;;5061179;28;20218;-76
2021/05/26 11:14:04;;;;;;;2.90;1.85;;;;;;;;;;5059976;28;20182;-75
2021/05/26 11:16:46;;;;;;;4.80;1.70;;;;;;;;;;5061332;28;20195;-75
2021/05/26 11:19:14;;;;;;;3.03;1.35;;;;;;;;;;5057273;28;20244;-76
2021/05/26 11:21:40;;;;;;;3.05;1.75;;;;;;;;;;5058633;28;20173;-75
2021/05/26 11:24:06;;;;;;;2.90;1.50;;;;;;;;;;5056286;28;20180;-76
2021/05/26 11:26:33;;;;;;;2.47;1.60;;;;;;;;;;5058739;28;20185;-76
2021/05/26 11:28:59;;;;;;;1.98;1.48;;;;;;;;;;5072953;28;20173;-76
2021/05/26 11:31:25;;;;;;;1.60;1.42;;;;;;;;;;5058763;28;20223;-76
2021/05/26 11:33:57;;;;;;;2.97;1.42;;;;;;;;;;5062769;28;20243;-76
2021/05/26 11:36:42;;;;;;;2.28;1.45;;;;;;;;;;5058309;28;20188;-75
2021/05/26 11:39:18;;;;;;;1.70;1.40;;;;;;;;;;5050931;28;20249;-76
2021/05/26 11:41:44;;;;;;;6.22;1.95;;;;;;;;;;5061179;28;20553;-76
2021/05/26 11:44:10;;;;;;;2.55;1.80;;;;;;;;;;5057362;28;20433;-79
2021/05/26 11:46:37;;;;;;;4.25;1.73;;;;;;;;;;5062039;28;20185;-76
2021/05/26 11:49:12;;;;;;;2.58;1.98;;;;;;;;;;5056934;28;20212;-75
2021/05/26 11:51:39;;;;;;;4.10;3.38;;;;;;;;;;5058187;28;20180;-76
2021/05/26 11:54:05;;;;;;;3.50;2.00;;;;;;;;;;5062405;28;20255;-75
2021/05/26 11:56:31;;;;;;;3.22;1.40;;;;;;;;;;5077799;28;20219;-76
2021/05/26 11:58:57;;;;;;;5.20;1.98;;;;;;;;;;5061481;28;20174;-75
2021/05/26 12:01:30;;;;;;;2.83;1.50;;;;;;;;;;5062511;28;20173;-76
2021/05/26 12:03:56;;;;;;;2.25;1.80;;;;;;;;;;5060560;28;20187;-76
2021/05/26 12:06:23;;;;;;;3.90;2.20;;;;;;;;;;5057542;28;20207;-75
2021/05/26 12:08:50;;;;;;;2.85;1.98;;;;;;;;;;5062422;28;20186;-77
2021/05/26 12:11:21;;;;;;;2.65;1.30;;;;;;;;;;5072204;28;20234;-76
2021/05/26 12:13:48;;;;;;;3.47;2.55;;;;;;;;;;5062891;28;20161;-76
2021/05/26 12:16:15;;;;;;;2.05;1.30;;;;;;;;;;5060592;28;20182;-75
2021/05/26 12:18:55;;;;;;;2.38;1.60;;;;;;;;;;5060857;28;20265;-77
2021/05/26 12:21:22;;;;;;;1.30;1.10;;;;;;;;;;5062136;28;20201;-76
2021/05/26 12:23:48;;;;;;;3.53;1.40;;;;;;;;;;5064926;28;20185;-76
2021/05/26 12:26:31;;;;;;;5.00;1.75;;;;;;;;;;5065602;28;20740;-75
2021/05/26 12:28:59;;;;;;;2.65;1.45;;;;;;;;;;5063496;28;20165;-76
2021/05/26 12:31:28;;;;;;;1.80;1.27;;;;;;;;;;5066026;28;20237;-77
2021/05/26 12:33:58;;;;;;;1.77;1.00;;;;;;;;;;5061635;28;20257;-76
2021/05/26 12:36:26;;;;;;;1.63;1.35;;;;;;;;;;5061439;28;20252;-76
2021/05/26 12:38:58;;;;;;;5.32;1.70;;;;;;;;;;5065657;28;20181;-76
2021/05/26 12:41:35;;;;;;;10.00;7.90;;;;;;;;;;5059190;28;20207;-76
2021/05/26 12:44:01;;;;;;;9.27;8.23;;;;;;;;;;5066090;28;20177;-76
2021/05/26 12:46:33;;;;;;;10.43;8.02;;;;;;;;;;5060704;28;20251;-76
2021/05/26 12:48:59;;;;;;;3.47;1.65;;;;;;;;;;5060146;28;20207;-77
2021/05/26 12:51:25;;;;;;;2.83;1.63;;;;;;;;;;5061199;28;20184;-76
2021/05/26 12:53:58;;;;;;;4.23;3.83;;;;;;;;;;5065622;28;20435;-76
2021/05/26 12:56:26;;;;;;;1.38;1.10;;;;;;;;;;5060082;28;20439;-76
2021/05/26 12:58:52;;;;;;;1.73;1.33;;;;;;;;;;5060780;28;20643;-76
2021/05/26 13:01:18;;;;;;;3.60;2.25;;;;;;;;;;5064424;28;20196;-77
2021/05/26 13:03:44;;;;;;;2.30;1.63;;;;;;;;;;5065184;28;20485;-76
2021/05/26 13:06:18;;;;;;;3.25;2.15;;;;;;;;;;5058053;28;20446;-77
2021/05/26 13:08:57;;;;;;;3.90;2.00;;;;;;;;;;5076324;28;20241;-77
2021/05/26 13:11:42;;;;;;;6.75;1.80;;;;;;;;;;5058362;28;20316;-77
2021/05/26 13:14:10;;;;;;;1.45;1.25;;;;;;;;;;5065494;28;20250;-76
2021/05/26 13:16:36;;;;;;;2.53;1.90;;;;;;;;;;5064289;28;20264;-77
2021/05/26 13:19:03;;;;;;;5.40;2.10;;;;;;;;;;5062589;28;20374;-77
2021/05/26 13:21:30;;;;;;;3.65;2.30;;;;;;;;;;5061095;28;20494;-77
2021/05/26 13:23:56;;;;;;;2.55;2.10;;;;;;;;;;5064319;28;20185;-75
2021/05/26 13:26:22;;;;;;;2.55;1.35;;;;;;;;;;5073764;28;20188;-77
2021/05/26 13:28:48;;;;;;;2.93;1.40;;;;;;;;;;5064537;28;20653;-77
2021/05/26 13:31:14;;;;;;;4.03;1.90;;;;;;;;;;5060656;28;20462;-76
2021/05/26 13:33:40;;;;;;;3.75;1.45;;;;;;;;;;5059155;28;20462;-76
2021/05/26 13:36:06;;;;;;;1.30;1.20;;;;;;;;;;5062686;28;20181;-76
2021/05/26 13:38:32;;;;;;;2.28;1.70;;;;;;;;;;5073737;28;20534;-76
2021/05/26 13:40:58;;;;;;;4.25;1.55;;;;;;;;;;5071569;28;20259;-77
2021/05/26 13:43:25;;;;;;;3.00;1.30;;;;;;;;;;5060308;28;20169;-76
2021/05/26 13:45:52;;;;;;;1.88;1.30;;;;;;;;;;5060291;28;20921;-76
2021/05/26 13:48:20;;;;;;;2.65;2.10;;;;;;;;;;5059399;28;20189;-76
2021/05/26 13:50:46;;;;;;;1.65;1.42;;;;;;;;;;5064416;28;20185;-76
2021/05/26 13:53:12;;;;;;;4.50;2.85;;;;;;;;;;5063135;28;20195;-77
2021/05/26 13:55:41;;;;;;;3.08;1.90;;;;;;;;;;5059897;28;20223;-76
2021/05/26 13:58:07;;;;;;;5.55;1.92;;;;;;;;;;5059699;28;20185;-76
2021/05/26 14:00:34;;;;;;;2.45;1.20;;;;;;;;;;5060697;28;20683;-76
2021/05/26 14:03:00;;;;;;;1.77;1.30;;;;;;;;;;5059290;28;20184;-76
2021/05/26 14:05:26;;;;;;;1.55;1.17;;;;;;;;;;5059762;28;20185;-75
2021/05/26 14:07:53;;;;;;;1.23;1.13;;;;;;;;;;5074261;28;20183;-75
2021/05/26 14:10:20;;;;;;;1.40;1.30;;;;;;;;;;5058421;28;20253;-76
2021/05/26 14:12:47;;;;;;;1.45;1.25;;;;;;;;;;5072345;28;20187;-76
2021/05/26 14:15:14;;;;;;;1.20;1.10;;;;;;;;;;5053128;28;20177;-76
2021/05/26 14:17:40;;;;;;;3.47;2.00;;;;;;;;;;5060588;28;20608;-76
2021/05/26 14:20:07;;;;;;;3.15;1.77;;;;;;;;;;5058581;28;20204;-76
2021/05/26 14:22:33;;;;;;;1.63;1.50;;;;;;;;;;5059599;28;20187;-76
2021/05/26 14:24:59;;;;;;;2.70;2.17;;;;;;;;;;5073343;28;20187;-77
2021/05/26 14:27:25;;;;;;;4.00;1.30;;;;;;;;;;5063179;28;20235;-77
2021/05/26 14:29:51;;;;;;;2.20;2.00;;;;;;;;;;5063819;28;20181;-76
2021/05/26 14:32:17;;;;;;;1.60;1.33;;;;;;;;;;5061989;28;20797;-77
2021/05/26 14:34:44;;;;;;;1.58;1.35;;;;;;;;;;5063682;28;20165;-78
2021/05/26 14:37:12;;;;;;;1.52;1.30;;;;;;;;;;5057562;28;20246;-78
2021/05/26 14:39:41;;;;;;;1.45;1.35;;;;;;;;;;5058013;28;20205;-78
2021/05/26 14:42:08;;;;;;;3.00;1.55;;;;;;;;;;5061521;28;20634;-77
2021/05/26 14:44:34;;;;;;;2.45;1.35;;;;;;;;;;5060280;28;20237;-77
2021/05/26 14:47:00;;;;;;;1.50;1.40;;;;;;;;;;5057240;28;20177;-78